Almelund, Minnesota
Current Conditions -  °F | °C
As of 12:55 AM on Monday 24 Nov 2014 (Local Time) from KOEO Reporting Station
Light Snow Light Snow  
Wind Chill: 25°   Ceiling: 400
Heat Index: 33°   Visibility: 3mi
Dew Point: 33°   Wind: 10mph
Humidity: 100%   Direction: 300°WNW
Pressure: 29.31"   Gusts: NA
Location:  45.49°N, 92.79°W
Report Text: KOEO 240655Z AUTO 30009KT 3SM -SN OVC004 01/01 A2931 RMK AO2 P0001 T00070007
Loading
Personal Weather Stations






























Interactive Weather Map New forecast layout! Learn more

10-Day Weather Forecast

Advertisements
Track Severe Weather on mobile